Time;durP1;ratioP1;P1;durP2;ratioP2;P2;SDS_P1;SDS_P2;PMS_P1;PMS_P2;Temp;Humidity;BMP_temperature;BMP_pressure;BME280_temperature;BME280_humidity;BME280_pressure;Samples;Min_cycle;Max_cycle;Signal;HPM_P1;HPM_P2
2023/08/13 00:00:16;;;;;;;9.15;3.05;;;16.10;99.90;;;;;;5030791;28;20369;-53
2023/08/13 00:02:44;;;;;;;6.07;2.47;;;16.10;99.90;;;;;;5012500;28;20026;-53
2023/08/13 00:05:11;;;;;;;8.45;2.80;;;16.00;99.90;;;;;;5030514;28;20033;-53
2023/08/13 00:07:37;;;;;;;5.43;2.72;;;16.00;99.90;;;;;;5030135;28;20416;-53
2023/08/13 00:10:04;;;;;;;6.72;2.47;;;16.00;99.90;;;;;;5030534;28;20057;-51
2023/08/13 00:12:29;;;;;;;8.02;2.63;;;16.10;99.90;;;;;;5030215;28;20029;-50
2023/08/13 00:14:55;;;;;;;6.43;3.55;;;16.10;99.90;;;;;;5030433;28;20044;-54
2023/08/13 00:17:21;;;;;;;4.03;2.60;;;16.10;99.90;;;;;;5030255;28;20091;-54
2023/08/13 00:19:46;;;;;;;10.68;3.00;;;16.10;99.90;;;;;;5030412;28;20125;-53
2023/08/13 00:22:12;;;;;;;8.07;3.38;;;16.10;99.90;;;;;;5030029;28;20036;-53
2023/08/13 00:24:37;;;;;;;6.88;3.28;;;16.00;99.90;;;;;;5012608;28;20034;-52
2023/08/13 00:27:03;;;;;;;8.07;3.25;;;16.10;99.90;;;;;;5030169;28;20045;-54
2023/08/13 00:29:30;;;;;;;4.90;2.90;;;16.10;99.90;;;;;;5012738;28;20036;-52
2023/08/13 00:31:56;;;;;;;8.40;3.53;;;16.10;99.90;;;;;;5012263;28;20040;-51
2023/08/13 00:34:22;;;;;;;6.18;2.92;;;16.00;99.90;;;;;;5030664;28;20037;-53
2023/08/13 00:36:48;;;;;;;8.98;3.33;;;16.00;99.90;;;;;;5015853;28;20029;-53
2023/08/13 00:39:13;;;;;;;7.85;3.30;;;16.00;99.90;;;;;;5034340;28;20033;-50
2023/08/13 00:41:39;;;;;;;5.22;3.22;;;16.00;99.90;;;;;;5016308;28;20017;-51
2023/08/13 00:44:05;;;;;;;9.20;3.30;;;15.90;99.90;;;;;;5033998;28;20032;-51
2023/08/13 00:46:32;;;;;;;7.03;3.35;;;15.90;99.90;;;;;;5015866;28;20474;-49
2023/08/13 00:48:59;;;;;;;7.03;3.80;;;15.90;99.90;;;;;;5015939;28;20033;-51
2023/08/13 00:51:26;;;;;;;10.02;3.75;;;15.90;99.90;;;;;;5033545;28;20052;-50
2023/08/13 00:53:52;;;;;;;7.90;3.75;;;15.90;99.90;;;;;;5033718;28;20037;-51
2023/08/13 00:56:18;;;;;;;8.88;3.60;;;15.80;99.90;;;;;;5033308;28;20033;-52
2023/08/13 00:58:45;;;;;;;7.57;3.60;;;15.80;99.90;;;;;;5033452;28;20025;-52
2023/08/13 01:01:12;;;;;;;6.97;3.22;;;15.80;99.90;;;;;;5015783;28;20026;-53
2023/08/13 01:03:38;;;;;;;5.95;3.22;;;15.80;99.90;;;;;;5015361;28;20033;-50
2023/08/13 01:06:16;;;;;;;4.53;2.80;;;15.70;99.90;;;;;;5015354;28;20516;-49
2023/08/13 01:08:56;;;;;;;6.13;3.20;;;15.70;99.90;;;;;;5015502;28;20044;-49
2023/08/13 01:11:50;;;;;;;7.75;3.30;;;15.70;99.90;;;;;;5033160;28;20029;-52
2023/08/13 01:14:33;;;;;;;7.03;3.97;;;15.70;99.90;;;;;;5015203;28;20064;-51
2023/08/13 01:17:00;;;;;;;6.25;3.00;;;15.70;99.90;;;;;;5015246;28;20041;-51
2023/08/13 01:19:26;;;;;;;8.20;2.97;;;15.70;99.90;;;;;;5015414;28;20030;-49
2023/08/13 01:21:51;;;;;;;6.57;2.97;;;15.70;99.90;;;;;;5033312;28;20051;-51
2023/08/13 01:24:17;;;;;;;6.25;3.30;;;15.70;99.90;;;;;;5032892;28;20033;-49
2023/08/13 01:26:58;;;;;;;8.30;3.45;;;15.70;99.90;;;;;;5014932;28;20087;-49
2023/08/13 01:29:34;;;;;;;6.80;3.55;;;15.70;99.90;;;;;;5032889;28;20034;-49
2023/08/13 01:32:02;;;;;;;7.95;3.28;;;15.60;99.90;;;;;;5014911;28;20096;-53
2023/08/13 01:34:28;;;;;;;6.20;3.47;;;15.60;99.90;;;;;;5015130;28;20033;-51
2023/08/13 01:36:54;;;;;;;6.40;2.80;;;15.60;99.90;;;;;;5015018;28;20394;-49
2023/08/13 01:39:20;;;;;;;11.68;3.38;;;15.70;99.90;;;;;;5014911;28;20120;-49
2023/08/13 01:41:54;;;;;;;6.25;3.25;;;15.60;99.90;;;;;;5014984;28;20057;-49
2023/08/13 01:44:20;;;;;;;6.28;3.13;;;15.60;99.90;;;;;;5014869;28;20034;-49
2023/08/13 01:46:46;;;;;;;7.07;2.90;;;15.60;99.90;;;;;;5032445;28;20034;-52
2023/08/13 01:49:12;;;;;;;4.97;2.72;;;15.60;99.90;;;;;;5032658;28;20040;-51
2023/08/13 01:51:38;;;;;;;6.45;2.88;;;15.60;99.90;;;;;;5014638;28;20029;-52
2023/08/13 01:54:04;;;;;;;9.27;2.83;;;15.60;99.90;;;;;;5032310;28;20058;-52
2023/08/13 01:56:30;;;;;;;6.82;3.42;;;15.70;99.90;;;;;;5032358;28;20489;-49
2023/08/13 01:58:56;;;;;;;5.57;2.95;;;15.70;99.90;;;;;;5014655;28;20036;-49
2023/08/13 02:01:21;;;;;;;7.47;2.80;;;15.70;99.90;;;;;;5014636;28;20030;-53
2023/08/13 02:03:47;;;;;;;8.15;2.92;;;15.60;99.90;;;;;;5014736;28;20037;-50
2023/08/13 02:06:12;;;;;;;7.10;2.67;;;15.60;99.90;;;;;;5032216;28;20028;-53
2023/08/13 02:08:38;;;;;;;7.07;2.80;;;15.50;99.90;;;;;;5032476;28;20478;-53
2023/08/13 02:11:04;;;;;;;6.35;2.70;;;15.50;99.90;;;;;;5014681;28;20403;-50
2023/08/13 02:13:29;;;;;;;6.75;2.70;;;15.40;99.90;;;;;;5032075;28;20033;-50
2023/08/13 02:16:01;;;;;;;7.18;2.80;;;15.40;99.90;;;;;;5014512;28;20040;-51
2023/08/13 02:18:27;;;;;;;5.00;2.65;;;15.30;99.90;;;;;;5014485;28;20123;-49
2023/08/13 02:20:52;;;;;;;6.30;2.42;;;15.30;99.90;;;;;;5014186;28;20075;-52
2023/08/13 02:23:18;;;;;;;6.55;2.50;;;15.20;99.90;;;;;;5031667;28;20116;-52
2023/08/13 02:25:44;;;;;;;5.90;2.55;;;15.20;99.90;;;;;;5031774;28;20029;-53
2023/08/13 02:28:09;;;;;;;6.88;2.50;;;15.20;99.90;;;;;;5031836;28;20107;-52
2023/08/13 02:30:37;;;;;;;6.93;2.67;;;15.10;99.90;;;;;;5014078;28;20026;-51
2023/08/13 02:33:02;;;;;;;6.40;2.83;;;15.10;99.90;;;;;;5031578;28;20029;-50
2023/08/13 02:35:28;;;;;;;6.60;3.22;;;15.10;99.90;;;;;;5014010;28;20714;-53
2023/08/13 02:37:54;;;;;;;6.50;2.88;;;15.20;99.90;;;;;;5013800;28;20029;-50
2023/08/13 02:40:19;;;;;;;6.43;2.53;;;15.20;99.90;;;;;;5013816;28;20037;-53
2023/08/13 02:42:45;;;;;;;6.10;2.78;;;15.20;99.90;;;;;;5013538;28;20031;-49
2023/08/13 02:45:11;;;;;;;7.68;2.72;;;15.10;99.90;;;;;;5031482;28;20032;-52
2023/08/13 02:47:36;;;;;;;5.45;2.30;;;15.10;99.90;;;;;;5031309;28;20026;-50
2023/08/13 02:50:02;;;;;;;6.60;2.50;;;15.10;99.90;;;;;;5013582;28;20474;-53
2023/08/13 02:52:29;;;;;;;4.32;2.17;;;15.20;99.90;;;;;;5013321;28;20069;-49
2023/08/13 02:54:55;;;;;;;8.05;3.40;;;15.10;99.90;;;;;;5031356;28;20049;-50
2023/08/13 02:57:21;;;;;;;7.70;2.88;;;15.10;99.90;;;;;;5030907;28;20718;-53
2023/08/13 02:59:46;;;;;;;5.90;2.70;;;15.10;99.90;;;;;;5013668;28;20029;-51
2023/08/13 03:02:12;;;;;;;5.03;2.50;;;15.10;99.90;;;;;;5013779;28;20160;-53
2023/08/13 03:04:38;;;;;;;5.53;2.88;;;15.10;99.90;;;;;;5013384;28;20033;-52
2023/08/13 03:07:04;;;;;;;10.13;2.72;;;15.10;99.90;;;;;;5030833;28;20018;-52
2023/08/13 03:09:29;;;;;;;6.82;3.40;;;15.10;99.90;;;;;;5031221;28;20041;-50
2023/08/13 03:11:55;;;;;;;11.05;2.97;;;15.10;99.90;;;;;;5013151;28;20033;-52
2023/08/13 03:14:21;;;;;;;6.93;2.67;;;15.10;99.90;;;;;;5013248;28;20043;-53
2023/08/13 03:16:48;;;;;;;5.63;2.80;;;15.10;99.90;;;;;;4996978;28;20473;-53
2023/08/13 03:19:14;;;;;;;7.72;3.08;;;15.00;99.90;;;;;;4996804;28;20065;-52
2023/08/13 03:21:42;;;;;;;7.10;2.90;;;15.00;99.90;;;;;;5012960;28;20083;-53
2023/08/13 03:24:08;;;;;;;6.40;2.63;;;15.00;99.90;;;;;;5013067;28;20430;-53
2023/08/13 03:26:34;;;;;;;8.98;2.75;;;15.00;99.90;;;;;;5013079;28;20528;-49
2023/08/13 03:28:59;;;;;;;5.95;2.33;;;14.90;99.90;;;;;;5013034;28;20083;-54
2023/08/13 03:31:25;;;;;;;5.80;2.47;;;14.90;99.90;;;;;;5030759;28;20029;-53
2023/08/13 03:33:57;;;;;;;7.70;2.53;;;14.90;99.90;;;;;;5013112;28;20036;-51
2023/08/13 03:36:23;;;;;;;6.40;2.13;;;14.80;99.90;;;;;;5012808;28;20025;-50
2023/08/13 03:38:49;;;;;;;6.53;2.72;;;14.70;99.90;;;;;;5012957;28;20425;-50
2023/08/13 03:41:15;;;;;;;5.13;2.40;;;14.70;99.90;;;;;;5030619;28;20481;-49
2023/08/13 03:43:40;;;;;;;5.82;2.17;;;14.70;99.90;;;;;;5012788;28;20029;-50
2023/08/13 03:46:06;;;;;;;8.95;2.75;;;14.70;99.90;;;;;;5012766;28;20032;-50
2023/08/13 03:48:32;;;;;;;7.53;2.60;;;14.60;99.90;;;;;;5012967;28;20032;-51
2023/08/13 03:51:04;;;;;;;8.63;2.60;;;14.60;99.90;;;;;;5012909;28;20029;-52
2023/08/13 03:53:30;;;;;;;;;;;14.60;99.90;;;;;;5013173;28;20036;-50
2023/08/13 03:55:56;;;;;;;4.18;2.15;;;14.60;99.90;;;;;;5012599;28;19909;-53
2023/08/13 03:58:22;;;;;;;9.02;2.72;;;14.60;99.90;;;;;;5012791;28;20048;-52
2023/08/13 04:00:48;;;;;;;6.93;2.88;;;14.50;99.90;;;;;;5012600;28;20535;-53
2023/08/13 04:03:14;;;;;;;5.60;1.90;;;14.50;99.90;;;;;;5030315;28;20114;-54
2023/08/13 04:05:40;;;;;;;5.32;2.50;;;14.50;99.90;;;;;;4996344;28;20025;-54
2023/08/13 04:08:05;;;;;;;9.48;2.47;;;14.50;99.90;;;;;;5012551;28;20040;-50
2023/08/13 04:10:31;;;;;;;9.30;2.65;;;14.50;99.90;;;;;;5034339;28;20033;-51
2023/08/13 04:12:57;;;;;;;5.30;3.00;;;14.60;99.90;;;;;;5034225;28;20112;-51
2023/08/13 04:15:23;;;;;;;7.05;2.45;;;14.60;99.90;;;;;;5016542;28;20548;-49
2023/08/13 04:17:49;;;;;;;7.57;2.45;;;14.50;99.90;;;;;;5016255;28;20033;-52
2023/08/13 04:20:17;;;;;;;8.40;2.42;;;14.50;99.90;;;;;;5016226;28;20026;-51
2023/08/13 04:22:42;;;;;;;8.77;2.45;;;14.50;99.90;;;;;;5033898;28;20042;-52
2023/08/13 04:25:09;;;;;;;5.40;2.50;;;14.50;99.90;;;;;;5016158;28;20029;-52
2023/08/13 04:27:35;;;;;;;5.38;2.17;;;14.40;99.90;;;;;;5016224;28;20028;-50
2023/08/13 04:30:01;;;;;;;6.18;2.30;;;14.40;99.90;;;;;;5016359;28;20029;-52
2023/08/13 04:32:27;;;;;;;8.45;2.42;;;14.40;99.90;;;;;;5016057;28;20033;-52
2023/08/13 04:34:52;;;;;;;7.35;2.13;;;14.40;99.90;;;;;;5016276;28;20121;-53
2023/08/13 04:37:18;;;;;;;5.28;2.10;;;14.40;99.90;;;;;;5015764;28;20029;-51
2023/08/13 04:39:44;;;;;;;6.18;2.47;;;14.40;99.90;;;;;;5015915;28;20033;-49
2023/08/13 04:42:10;;;;;;;5.68;2.30;;;14.40;99.90;;;;;;5015781;28;20022;-49
2023/08/13 04:44:36;;;;;;;6.07;2.50;;;14.40;99.90;;;;;;5015808;28;20398;-53
2023/08/13 04:47:02;;;;;;;8.65;2.60;;;14.40;99.90;;;;;;5015945;28;20036;-54
2023/08/13 04:49:28;;;;;;;7.03;2.72;;;14.40;99.90;;;;;;5033632;28;20026;-52
2023/08/13 04:51:54;;;;;;;7.32;2.67;;;14.40;99.90;;;;;;5033364;28;20475;-53
2023/08/13 04:54:20;;;;;;;3.90;1.80;;;14.40;99.90;;;;;;5015604;28;20108;-53
2023/08/13 04:56:45;;;;;;;5.38;2.00;;;14.40;99.90;;;;;;5015879;28;20232;-52
2023/08/13 04:59:12;;;;;;;7.45;2.50;;;14.40;99.90;;;;;;5015372;28;20029;-50
2023/08/13 05:01:38;;;;;;;5.40;2.20;;;14.50;99.90;;;;;;5015356;28;20172;-53
2023/08/13 05:04:04;;;;;;;4.18;2.38;;;14.60;99.90;;;;;;5015333;28;20104;-54
2023/08/13 05:06:33;;;;;;;;;;;14.60;99.90;;;;;;5015863;28;20029;-49
2023/08/13 05:09:00;;;;;;;9.80;2.30;;;14.70;99.90;;;;;;5015289;28;19912;-50
2023/08/13 05:11:26;;;;;;;6.82;2.20;;;14.70;99.90;;;;;;5015204;28;20030;-53
2023/08/13 05:13:52;;;;;;;4.50;2.22;;;14.70;99.90;;;;;;5015155;28;20022;-50
2023/08/13 05:16:19;;;;;;;4.38;2.13;;;14.70;99.90;;;;;;5015175;28;20021;-49
2023/08/13 05:18:46;;;;;;;9.27;2.42;;;14.80;99.90;;;;;;5015158;28;20075;-51
2023/08/13 05:21:14;;;;;;;7.93;2.50;;;14.90;99.90;;;;;;5014420;28;20101;-50
2023/08/13 05:23:39;;;;;;;4.53;1.90;;;14.90;99.90;;;;;;4998550;28;20098;-54
2023/08/13 05:26:06;;;;;;;4.32;1.88;;;14.90;99.90;;;;;;5014822;28;20025;-51
2023/08/13 05:28:32;;;;;;;7.70;1.98;;;15.00;99.90;;;;;;5015148;28;20083;-49
2023/08/13 05:31:02;;;;;;;7.10;2.53;;;15.10;99.90;;;;;;5015185;28;20136;-51
2023/08/13 05:33:28;;;;;;;5.40;2.00;;;15.20;99.90;;;;;;5014914;28;20052;-52
2023/08/13 05:35:54;;;;;;;4.85;1.98;;;15.20;99.90;;;;;;5014784;28;20029;-53
2023/08/13 05:38:20;;;;;;;4.55;2.00;;;15.30;99.90;;;;;;5014857;28;20498;-53
2023/08/13 05:40:47;;;;;;;8.30;2.05;;;15.50;99.90;;;;;;5014695;28;20061;-54
2023/08/13 05:43:13;;;;;;;4.03;1.70;;;15.50;99.90;;;;;;5014706;28;20026;-54
2023/08/13 05:45:41;;;;;;;4.90;1.73;;;15.60;99.90;;;;;;5014865;28;20029;-52
2023/08/13 05:48:07;;;;;;;4.80;1.85;;;15.60;99.90;;;;;;5015136;28;20026;-53
2023/08/13 05:50:32;;;;;;;7.93;2.50;;;15.80;99.90;;;;;;5014687;28;20029;-53
2023/08/13 05:52:58;;;;;;;5.85;2.25;;;15.90;99.90;;;;;;5014481;28;20029;-51
2023/08/13 05:55:24;;;;;;;8.40;3.20;;;16.00;99.90;;;;;;5032883;28;20037;-52
2023/08/13 05:57:49;;;;;;;5.80;2.20;;;16.10;99.90;;;;;;5032333;28;20044;-53
2023/08/13 06:00:16;;;;;;;5.47;2.17;;;16.10;99.90;;;;;;5032739;28;20044;-54
2023/08/13 06:02:42;;;;;;;4.65;2.28;;;16.10;99.90;;;;;;5032273;28;20028;-53
2023/08/13 06:05:08;;;;;;;9.88;2.47;;;16.20;99.90;;;;;;5032516;28;20744;-53
2023/08/13 06:07:34;;;;;;;6.18;2.00;;;16.10;99.90;;;;;;5032149;28;20044;-53
2023/08/13 06:10:01;;;;;;;6.70;2.05;;;16.10;99.90;;;;;;5032189;28;20029;-54
2023/08/13 06:12:26;;;;;;;4.80;1.73;;;16.10;99.90;;;;;;5032041;28;20049;-54
2023/08/13 06:14:52;;;;;;;4.07;2.05;;;16.20;99.90;;;;;;5032342;28;20511;-52
2023/08/13 06:17:17;;;;;;;5.03;2.20;;;16.30;99.90;;;;;;5014307;28;20045;-51
2023/08/13 06:19:43;;;;;;;7.40;2.20;;;16.40;99.90;;;;;;5032112;28;20033;-50
2023/08/13 06:22:10;;;;;;;6.65;2.22;;;16.50;99.90;;;;;;5031991;28;20037;-52
2023/08/13 06:24:35;;;;;;;4.97;2.33;;;16.60;99.90;;;;;;5032032;28;20079;-54
2023/08/13 06:27:01;;;;;;;4.13;2.10;;;16.60;99.90;;;;;;5032111;28;20365;-50
2023/08/13 06:29:26;;;;;;;3.92;1.60;;;16.70;99.90;;;;;;5014610;28;20037;-51
2023/08/13 06:31:52;;;;;;;6.60;1.85;;;16.90;99.90;;;;;;5031263;28;20038;-51
2023/08/13 06:34:18;;;;;;;5.18;1.80;;;16.80;99.90;;;;;;5013983;28;20041;-53
2023/08/13 06:36:43;;;;;;;5.20;1.90;;;16.90;99.90;;;;;;5031858;28;20377;-49
2023/08/13 06:39:09;;;;;;;7.80;1.98;;;17.00;99.90;;;;;;5031696;28;20033;-50
2023/08/13 06:41:35;;;;;;;7.90;2.30;;;16.90;99.90;;;;;;5013929;28;20032;-50
2023/08/13 06:44:05;;;;;;;8.57;2.13;;;17.00;99.90;;;;;;5013925;28;20402;-49
2023/08/13 06:46:30;;;;;;;5.25;2.05;;;17.00;99.90;;;;;;5031439;28;20025;-50
2023/08/13 06:48:56;;;;;;;7.93;2.08;;;17.20;99.90;;;;;;5031624;28;20437;-52
2023/08/13 06:51:22;;;;;;;7.63;2.25;;;17.20;99.90;;;;;;5031552;28;20029;-51
2023/08/13 06:53:47;;;;;;;7.15;2.28;;;17.30;99.90;;;;;;5031458;28;20033;-50
2023/08/13 06:56:13;;;;;;;5.05;1.73;;;17.20;99.90;;;;;;5031188;28;20026;-50
2023/08/13 06:58:39;;;;;;;5.93;2.13;;;17.30;99.90;;;;;;5031322;28;20025;-50
2023/08/13 07:01:05;;;;;;;4.22;1.95;;;17.40;99.90;;;;;;5031248;28;20608;-50
2023/08/13 07:03:31;;;;;;;5.68;2.00;;;17.40;99.90;;;;;;5030857;28;20033;-51
2023/08/13 07:05:56;;;;;;;5.60;2.20;;;17.60;99.90;;;;;;5031042;28;20422;-49
2023/08/13 07:08:23;;;;;;;6.72;2.08;;;17.70;99.90;;;;;;5031170;28;20382;-52
2023/08/13 07:10:50;;;;;;;4.80;2.10;;;17.80;99.90;;;;;;5031120;28;20434;-51
2023/08/13 07:13:15;;;;;;;6.28;2.17;;;18.00;99.90;;;;;;5030997;28;20036;-50
2023/08/13 07:15:41;;;;;;;4.88;1.75;;;18.20;99.90;;;;;;5031127;28;20037;-50
2023/08/13 07:18:07;;;;;;;6.22;2.10;;;18.40;99.90;;;;;;5030937;28;20401;-49
2023/08/13 07:20:33;;;;;;;6.28;1.95;;;18.60;99.90;;;;;;5030911;28;20091;-53
2023/08/13 07:23:00;;;;;;;5.75;1.77;;;18.70;99.90;;;;;;5030661;28;20438;-54
2023/08/13 07:25:26;;;;;;;4.55;1.77;;;19.00;99.90;;;;;;5030938;28;20474;-53
2023/08/13 07:27:52;;;;;;;4.93;1.75;;;19.20;99.90;;;;;;5030749;28;20067;-54
2023/08/13 07:30:18;;;;;;;3.45;1.58;;;19.40;99.90;;;;;;5030943;28;20469;-54
2023/08/13 07:32:43;;;;;;;4.88;1.60;;;19.60;99.90;;;;;;5030478;28;20071;-53
2023/08/13 07:35:10;;;;;;;5.63;1.60;;;19.70;99.90;;;;;;5030913;28;20044;-53
2023/08/13 07:37:36;;;;;;;6.05;2.38;;;19.70;99.90;;;;;;5030594;28;20044;-52
2023/08/13 07:40:07;;;;;;;5.82;1.58;;;19.70;99.90;;;;;;5031031;28;20564;-49
2023/08/13 07:42:33;;;;;;;4.25;1.92;;;19.80;99.90;;;;;;5030533;28;20136;-53
2023/08/13 07:44:59;;;;;;;10.50;1.95;;;19.70;99.90;;;;;;5018779;28;20104;-54
2023/08/13 07:47:24;;;;;;;14.25;2.00;;;19.70;99.90;;;;;;5037112;28;20589;-53
2023/08/13 07:49:50;;;;;;;8.40;1.73;;;19.90;99.90;;;;;;5037641;28;20037;-53
2023/08/13 07:52:16;;;;;;;6.38;2.03;;;19.90;99.90;;;;;;5019369;28;20358;-51
2023/08/13 07:54:41;;;;;;;7.70;1.58;;;20.00;99.90;;;;;;5037181;28;20179;-54
2023/08/13 07:57:07;;;;;;;7.50;2.30;;;20.20;99.90;;;;;;5037054;28;20486;-53
2023/08/13 07:59:33;;;;;;;5.60;1.95;;;20.30;99.90;;;;;;5037033;28;20030;-53
2023/08/13 08:01:59;;;;;;;3.75;1.73;;;20.40;99.90;;;;;;5037182;28;20029;-54
2023/08/13 08:04:25;;;;;;;3.72;1.30;;;20.40;99.90;;;;;;5036975;28;20083;-53
2023/08/13 08:06:51;;;;;;;8.73;1.45;;;20.50;99.90;;;;;;5036771;28;20021;-53
2023/08/13 08:09:16;;;;;;;2.78;1.05;;;20.50;99.90;;;;;;5037248;28;20453;-52
2023/08/13 08:11:42;;;;;;;8.43;1.77;;;20.50;99.90;;;;;;5036977;28;20384;-50
2023/08/13 08:14:07;;;;;;;3.53;1.27;;;20.50;99.90;;;;;;5037741;28;20036;-50
2023/08/13 08:16:33;;;;;;;7.03;2.50;;;20.60;99.90;;;;;;5037228;28;20083;-53
2023/08/13 08:18:59;;;;;;;8.68;3.65;;;20.70;99.90;;;;;;5036968;28;20037;-54
2023/08/13 08:21:25;;;;;;;3.75;1.55;;;20.70;99.90;;;;;;5036880;28;20033;-51
2023/08/13 08:23:51;;;;;;;8.55;3.63;;;20.70;99.90;;;;;;5019173;28;20059;-53
2023/08/13 08:26:16;;;;;;;24.05;11.30;;;20.80;99.90;;;;;;5036814;28;20505;-50
2023/08/13 08:28:42;;;;;;;17.58;5.90;;;20.80;99.90;;;;;;5037095;28;20036;-51
2023/08/13 08:31:07;;;;;;;14.55;7.28;;;20.90;99.90;;;;;;5036784;28;20038;-52
2023/08/13 08:33:33;;;;;;;4.05;1.65;;;21.00;99.90;;;;;;5037046;28;20029;-53
2023/08/13 08:35:59;;;;;;;8.82;3.35;;;21.00;99.90;;;;;;5036506;28;20037;-50
2023/08/13 08:38:24;;;;;;;10.40;4.18;;;21.00;99.90;;;;;;5037031;28;20029;-54
2023/08/13 08:40:52;;;;;;;4.18;1.60;;;21.00;99.90;;;;;;5036745;28;20517;-51
2023/08/13 08:43:18;;;;;;;11.48;3.72;;;21.10;99.90;;;;;;5036457;28;20470;-50
2023/08/13 08:45:44;;;;;;;10.27;4.03;;;21.00;99.90;;;;;;5018850;28;20033;-51
2023/08/13 08:48:11;;;;;;;7.55;2.88;;;21.00;99.90;;;;;;5036701;28;20106;-49
2023/08/13 08:50:37;;;;;;;6.90;3.13;;;21.10;99.90;;;;;;5036624;28;20037;-50
2023/08/13 08:53:03;;;;;;;5.13;1.90;;;21.10;99.90;;;;;;5036399;28;20121;-51
2023/08/13 08:55:30;;;;;;;5.53;1.38;;;21.20;99.90;;;;;;5034271;28;20112;-53
2023/08/13 08:57:56;;;;;;;5.15;2.33;;;21.30;99.90;;;;;;5033251;28;20366;-51
2023/08/13 09:00:21;;;;;;;10.55;3.70;;;21.40;99.90;;;;;;5033324;28;20025;-50
2023/08/13 09:02:49;;;;;;;6.00;1.70;;;21.60;99.90;;;;;;5015271;28;20508;-52
2023/08/13 09:05:15;;;;;;;6.15;2.42;;;21.60;99.90;;;;;;5033137;28;20037;-50
2023/08/13 09:07:44;;;;;;;7.30;3.83;;;21.60;99.90;;;;;;5015170;28;20044;-50
2023/08/13 09:10:10;;;;;;;11.30;5.50;;;21.80;99.90;;;;;;5033162;28;20037;-51
2023/08/13 09:12:38;;;;;;;3.90;1.40;;;21.80;99.90;;;;;;5033054;28;20037;-49
2023/08/13 09:15:09;;;;;;;3.17;1.10;;;21.80;99.90;;;;;;5033063;28;20026;-51
2023/08/13 09:17:34;;;;;;;8.32;2.75;;;21.80;99.90;;;;;;5032787;28;20037;-52
2023/08/13 09:20:08;;;;;;;5.55;2.45;;;21.80;99.90;;;;;;5033231;28;20037;-51
2023/08/13 09:22:34;;;;;;;10.25;5.10;;;22.00;99.90;;;;;;5032824;28;20545;-50
2023/08/13 09:25:02;;;;;;;6.80;2.90;;;22.10;99.90;;;;;;5032931;28;20025;-49
2023/08/13 09:27:30;;;;;;;14.57;6.80;;;22.10;99.90;;;;;;5032951;28;20060;-51
2023/08/13 09:29:57;;;;;;;8.18;3.55;;;22.20;99.90;;;;;;5032881;28;20040;-50
2023/08/13 09:32:23;;;;;;;4.35;1.75;;;22.40;99.90;;;;;;5032573;28;20040;-53
2023/08/13 09:34:52;;;;;;;3.50;1.10;;;22.40;99.90;;;;;;5032797;28;20025;-54
2023/08/13 09:37:18;;;;;;;5.68;2.25;;;22.40;99.90;;;;;;5032672;28;20115;-51
2023/08/13 09:39:43;;;;;;;5.78;2.50;;;22.40;99.90;;;;;;5032903;28;20037;-49
2023/08/13 09:42:10;;;;;;;2.85;1.17;;;22.40;99.90;;;;;;5032547;28;20029;-52
2023/08/13 09:44:36;;;;;;;4.43;1.13;;;22.40;99.90;;;;;;5032855;28;20036;-54
2023/08/13 09:47:03;;;;;;;4.88;1.20;;;22.40;99.90;;;;;;5032426;28;20040;-50
2023/08/13 09:49:31;;;;;;;7.70;1.55;;;22.40;99.90;;;;;;5032702;28;20039;-52
2023/08/13 09:52:08;;;;;;;3.88;1.40;;;22.40;99.90;;;;;;5032333;28;20083;-50
2023/08/13 09:54:48;;;;;;;6.35;2.40;;;22.50;99.90;;;;;;5032399;28;20482;-52
2023/08/13 09:57:18;;;;;;;5.32;1.85;;;22.60;99.90;;;;;;5032258;28;20037;-51
2023/08/13 09:59:44;;;;;;;5.68;1.30;;;22.70;99.90;;;;;;5032262;28;20117;-53
2023/08/13 10:02:13;;;;;;;9.02;3.33;;;22.80;99.90;;;;;;5032306;28;20474;-50
2023/08/13 10:04:39;;;;;;;;;;;22.90;99.90;;;;;;5032741;28;20096;-54
2023/08/13 10:07:05;;;;;;;5.07;2.00;;;23.00;99.90;;;;;;5031850;28;20012;-48
2023/08/13 10:09:32;;;;;;;3.65;1.42;;;23.10;99.90;;;;;;5032164;28;20044;-51
2023/08/13 10:11:59;;;;;;;4.43;1.25;;;23.10;99.90;;;;;;5031943;28;20053;-54
2023/08/13 10:14:25;;;;;;;4.35;1.20;;;23.30;99.90;;;;;;5032120;28;20386;-52
2023/08/13 10:16:51;;;;;;;3.88;1.75;;;23.50;99.90;;;;;;5031818;28;20037;-53
2023/08/13 10:19:17;;;;;;;5.45;1.38;;;23.70;99.90;;;;;;5032050;28;20030;-50
2023/08/13 10:21:54;;;;;;;4.63;1.40;;;23.70;99.90;;;;;;5031760;28;20030;-54
2023/08/13 10:24:21;;;;;;;6.50;2.17;;;23.70;99.90;;;;;;5031807;28;20501;-52
2023/08/13 10:26:46;;;;;;;5.13;1.20;;;23.70;99.90;;;;;;5031802;28;20032;-53
2023/08/13 10:29:16;;;;;;;5.80;2.03;;;23.60;99.90;;;;;;5031929;28;20029;-54
2023/08/13 10:31:58;;;;;;;4.18;1.40;;;23.60;99.90;;;;;;5031838;28;20026;-53
2023/08/13 10:34:40;;;;;;;10.13;1.90;;;23.70;99.90;;;;;;5031737;28;20584;-54
2023/08/13 10:37:17;;;;;;;4.53;1.40;;;23.60;99.90;;;;;;5031777;28;20102;-49
2023/08/13 10:39:45;;;;;;;5.88;1.70;;;23.60;99.90;;;;;;5031907;28;20033;-50
2023/08/13 10:42:37;;;;;;;2.78;1.20;;;23.50;99.90;;;;;;5032088;28;20382;-54
2023/08/13 10:45:12;;;;;;;5.38;1.63;;;23.60;99.90;;;;;;5031536;28;20115;-50
2023/08/13 10:47:47;;;;;;;3.75;1.45;;;23.60;99.90;;;;;;5031889;28;20052;-50
2023/08/13 10:50:21;;;;;;;2.55;1.25;;;23.60;99.90;;;;;;5031912;28;20072;-49
2023/08/13 10:52:54;;;;;;;3.05;1.30;;;23.70;99.90;;;;;;5031978;28;20037;-49
2023/08/13 10:55:23;;;;;;;3.65;1.55;;;23.70;99.90;;;;;;5031985;28;20041;-49
2023/08/13 10:57:52;;;;;;;4.97;1.75;;;23.70;99.90;;;;;;5032238;28;20386;-49
2023/08/13 11:00:23;;;;;;;5.47;1.42;;;23.70;99.90;;;;;;5032029;28;20037;-49
2023/08/13 11:02:56;;;;;;;4.75;1.63;;;23.60;99.90;;;;;;5031216;28;20033;-53
2023/08/13 11:05:22;;;;;;;4.10;1.25;;;23.60;99.90;;;;;;5031863;28;20032;-47
2023/08/13 11:07:50;;;;;;;4.30;1.20;;;23.50;99.90;;;;;;5031041;28;20037;-49
2023/08/13 11:10:17;;;;;;;4.53;1.40;;;23.60;99.90;;;;;;5031527;28;20041;-49
2023/08/13 11:12:48;;;;;;;7.55;1.92;;;23.60;99.90;;;;;;5030902;28;20410;-54
2023/08/13 11:15:15;;;;;;;5.00;1.80;;;23.50;99.90;;;;;;5031081;28;20118;-51
2023/08/13 11:17:46;;;;;;;6.18;1.52;;;23.50;99.90;;;;;;5030761;28;20033;-54
2023/08/13 11:20:21;;;;;;;3.30;1.30;;;23.40;99.90;;;;;;5030602;28;20386;-51
2023/08/13 11:22:47;;;;;;;4.00;1.58;;;23.50;99.90;;;;;;5030722;28;20029;-54
2023/08/13 11:25:16;;;;;;;5.50;1.80;;;23.70;99.90;;;;;;5031190;28;20022;-54
2023/08/13 11:27:41;;;;;;;4.13;1.40;;;23.70;99.90;;;;;;5013263;28;20043;-53
2023/08/13 11:30:08;;;;;;;3.72;1.60;;;23.90;99.90;;;;;;5030869;28;20237;-51
2023/08/13 11:32:36;;;;;;;4.50;1.63;;;24.10;99.90;;;;;;5030665;28;20121;-54
2023/08/13 11:35:05;;;;;;;4.03;1.25;;;24.20;99.90;;;;;;5030813;28;20116;-53
2023/08/13 11:37:31;;;;;;;3.67;1.60;;;24.30;99.90;;;;;;5030635;28;20037;-51
2023/08/13 11:39:57;;;;;;;5.85;1.90;;;24.30;99.90;;;;;;5030684;28;20052;-49
2023/08/13 11:42:22;;;;;;;3.60;1.40;;;24.30;99.90;;;;;;5030353;28;20148;-50
2023/08/13 11:44:49;;;;;;;2.80;1.30;;;24.40;99.90;;;;;;5030605;28;20029;-52
2023/08/13 11:47:26;;;;;;;5.47;1.52;;;24.40;99.90;;;;;;5030481;28;20075;-49
2023/08/13 11:49:54;;;;;;;7.00;1.98;;;24.60;99.90;;;;;;5030603;28;20543;-49
2023/08/13 11:52:21;;;;;;;5.95;1.70;;;24.70;99.90;;;;;;5030270;28;20120;-51
2023/08/13 11:54:47;;;;;;;6.07;2.00;;;24.70;99.90;;;;;;5030586;28;20037;-50
2023/08/13 11:57:15;;;;;;;2.58;1.40;;;24.60;99.90;;;;;;5030384;28;20030;-49
2023/08/13 11:59:41;;;;;;;4.63;1.80;;;24.60;99.90;;;;;;5030426;28;20033;-51
2023/08/13 12:02:07;;;;;;;5.15;1.60;;;24.70;99.90;;;;;;5030557;28;20029;-52
2023/08/13 12:04:33;;;;;;;3.85;1.50;;;24.60;99.90;;;;;;5030359;28;20108;-52
2023/08/13 12:07:02;;;;;;;4.05;1.35;;;24.60;99.90;;;;;;5030111;28;20346;-51
2023/08/13 12:09:27;;;;;;;6.75;1.58;;;24.60;99.90;;;;;;5030658;28;20080;-50
2023/08/13 12:11:54;;;;;;;3.90;1.45;;;24.40;99.90;;;;;;5030647;28;20064;-51
2023/08/13 12:14:20;;;;;;;7.22;1.88;;;24.30;99.80;;;;;;5030250;28;20044;-50
2023/08/13 12:16:45;;;;;;;4.82;1.35;;;24.30;99.90;;;;;;5030024;28;20037;-49
2023/08/13 12:19:11;;;;;;;3.33;1.60;;;24.30;99.90;;;;;;5030362;28;20107;-49
2023/08/13 12:21:37;;;;;;;5.00;1.58;;;24.30;99.90;;;;;;5030130;28;20095;-50
2023/08/13 12:24:04;;;;;;;6.82;1.65;;;24.30;99.90;;;;;;5030117;28;20029;-50
2023/08/13 12:26:31;;;;;;;4.57;1.30;;;24.10;99.90;;;;;;5030095;28;20052;-49
2023/08/13 12:28:57;;;;;;;9.07;2.05;;;24.10;99.90;;;;;;5030352;28;20038;-53
2023/08/13 12:31:25;;;;;;;4.53;1.90;;;24.10;99.90;;;;;;5031944;28;20120;-49
2023/08/13 12:33:51;;;;;;;6.22;1.30;;;24.20;99.90;;;;;;5033881;28;20037;-50
2023/08/13 12:36:17;;;;;;;5.68;1.92;;;24.30;99.90;;;;;;5033738;28;20033;-50
2023/08/13 12:38:43;;;;;;;4.20;1.55;;;24.20;99.90;;;;;;5033875;28;20072;-50
2023/08/13 12:41:09;;;;;;;3.30;1.83;;;24.20;99.90;;;;;;5033655;28;20091;-50
2023/08/13 12:43:36;;;;;;;3.75;1.75;;;24.30;99.90;;;;;;5033445;28;20068;-50
2023/08/13 12:46:03;;;;;;;3.58;1.60;;;24.20;99.90;;;;;;5033457;28;20042;-48